Aérodrome :







RETROUVEZ-NOUS SUR...

 
LOGIN :

S'inscrire | Disclaimer

   EN    FR    IT 

 









Légende :    VFR   VFR Marginal   IFR   IFR Intensif   IFR Très Intensif
Visi : 
Plafond : 
>= 8 km
>= 3000ft
5 à 8 km
1000 à 3000 ft
1500m à 5 km
500 à 1000 ft
800 à 1500m
200 à 500 ft
< 800m
< 200 ft
Symboles :   Orages  Brouillard  Fortes neiges  Fortes précipitations  Vent > 20 kt






- Altitude de l'aérodrome : 20 ft
- Code IATA : BON


TNCB - Flamingo

DERNIER METAR :
  • 191555Z AUTO 11017KT 070V150 9999 BKN019/// BKN023/// 30/23 Q1014

METARs EXPIRÉS :
  • 191455Z 11018KT 080V140 9999 SCT019 29/22 Q1015
  • 191355Z 09017KT 070V130 9999 FEW020 29/22 Q1015

TAF TAF TNCB
Valide du 19 à 12h jusqu'au 20 à 18h UTC


191115Z 1912/2018 09015KT 9999 SCT020
PROB30
TEMPO 2006/2018 6000 SHRA SCT018CB



MET'MAP, la Météo Aéronautique d'un coup d'oeil ! - Copyright ORBIFLY Décembre 2007 - Disclaimer

ORBIFLY MET'MAP TEAM :

Programmation & Développement : Alexandra Zaïnal
Sur une idée originale de : Baudouin d'Aumeries
Assistance à la programmation : Marc-Olivier Méhu
Soutien technique & logistique : Manuel Goepfert

Contact : metmap@orbifly.com




SOURCES & CREDITS :

   NOAA